This is the latest recevied weather packets stored in our database for station/object N2XP-3. If no packets are shown the sender has not sent any weather packets the latest 10 day(s).
| Time | Temp. | Humidity | Pressure | Rain* | Wind** | Luminosity | Snow |
|---|---|---|---|---|---|---|---|
| 1777813652 | 12.78° C | 48% | 1010.3 hPa | 0 mm | 1.79 m/s, 179° | - | - |
| 1777813352 | 13.89° C | 46% | 1010.3 hPa | 0 mm | 2.68 m/s, 59° | - | - |
| 1777813053 | 13.89° C | 46% | 1010.2 hPa | 0 mm | 2.68 m/s, 83° | - | - |
| 1777812749 | 13.89° C | 49% | 1010.2 hPa | 0 mm | 0.89 m/s, 143° | - | - |
| 1777812450 | 13.89° C | 49% | 1010.3 hPa | 0 mm | 1.34 m/s, 285° | - | - |
| 1777812149 | 13.89° C | 47% | 1010.4 hPa | 0 mm | 2.24 m/s, 91° | - | - |
| 1777811844 | 13.89° C | 47% | 1010.3 hPa | 0 mm | 1.79 m/s, 222° | - | - |
| 1777811544 | 12.78° C | 51% | 1010.4 hPa | 0 mm | 0.89 m/s, 3° | - | - |
| 1777811245 | 12.78° C | 51% | 1010.4 hPa | 0 mm | 1.34 m/s, 221° | - | - |
| 1777810938 | 12.22° C | 55% | 1010.3 hPa | 0 mm | 0.89 m/s, 339° | - | - |
| 1777810638 | 10° C | 58% | 1010.3 hPa | 0 mm | 2.24 m/s, 262° | - | - |
| 1777810337 | 9.44° C | 59% | 1010.3 hPa | 0 mm | 2.24 m/s, 294° | - | - |
| 1777810033 | 10° C | 58% | 1010.3 hPa | 0 mm | 1.79 m/s, 276° | - | - |
| 1777809970 | 10° C | 58% | 1010.2 hPa | 0 mm | 2.24 m/s, 174° | - | - |
| 1777809793 | 10° C | 58% | 1010.2 hPa | 0 mm | 2.24 m/s, 174° | - | - |
| 1777809734 | 10° C | 58% | 1010.2 hPa | 0 mm | 2.24 m/s, 174° | - | - |
| 1777809435 | 9.44° C | 60% | 1010.1 hPa | 0 mm | 1.34 m/s, 118° | - | - |
| 1777808821 | 7.78° C | 66% | 1010 hPa | 0 mm | 1.79 m/s, 253° | - | - |
| 1777808522 | 7.22° C | 66% | 1010 hPa | 0 mm | 2.24 m/s, 179° | - | - |
| 1777808213 | 7.22° C | 68% | 1010.1 hPa | 0 mm | 1.34 m/s, 129° | - | - |
| 1777807615 | 6.11° C | 69% | 1010 hPa | 0 mm | 0 m/s | - | - |
| 1777807012 | 6.11° C | 70% | 1009.9 hPa | 0 mm | 2.68 m/s, 11° | - | - |
| 1777806713 | 5.56° C | 70% | 1009.7 hPa | 0 mm | 0 m/s | - | - |
| 1777806407 | 5.56° C | 71% | 1009.7 hPa | 0 mm | 1.34 m/s, 146° | - | - |
| 1777806108 | 5.56° C | 71% | 1009.6 hPa | 0 mm | 0 m/s | - | - |
* Rain latest hour (hover to see other rain measurements)
** Current wind speed in m/s (hover to see current wind gust speed)